Time;durP1;ratioP1;P1;durP2;ratioP2;P2;SDS_P1;SDS_P2;PMS_P1;PMS_P2;Temp;Humidity;BMP_temperature;BMP_pressure;BME280_temperature;BME280_humidity;BME280_pressure;Samples;Min_cycle;Max_cycle;Signal;HPM_P1;HPM_P2
2022/09/23 00:01:34;;;;;;;7.30;4.53;;;13.50;99.90;;;;;;5067117;28;20644;-34
2022/09/23 00:04:02;;;;;;;6.40;4.40;;;13.50;99.90;;;;;;5060891;28;20283;-34
2022/09/23 00:06:29;;;;;;;5.63;3.80;;;13.50;99.90;;;;;;5046967;28;20227;-34
2022/09/23 00:08:58;;;;;;;4.93;3.60;;;13.50;99.90;;;;;;5059595;28;20204;-35
2022/09/23 00:11:27;;;;;;;6.00;4.37;;;13.40;99.90;;;;;;5066785;28;20214;-34
2022/09/23 00:14:00;;;;;;;4.43;3.90;;;13.40;99.90;;;;;;5054456;28;20211;-34
2022/09/23 00:16:33;;;;;;;5.97;3.67;;;13.40;99.90;;;;;;5061112;28;20204;-34
2022/09/23 00:19:03;;;;;;;5.03;3.47;;;13.40;99.90;;;;;;5058377;28;20740;-34
2022/09/23 00:21:31;;;;;;;5.73;3.73;;;13.40;99.90;;;;;;5051212;28;20216;-34
2022/09/23 00:23:58;;;;;;;5.00;4.10;;;13.30;99.90;;;;;;5062196;28;20208;-34
2022/09/23 00:26:26;;;;;;;4.53;3.63;;;13.30;99.90;;;;;;5047478;28;20227;-34
2022/09/23 00:28:53;;;;;;;5.63;3.57;;;13.30;99.90;;;;;;5051222;28;20626;-34
2022/09/23 00:31:26;;;;;;;5.27;3.80;;;13.30;99.90;;;;;;5064699;28;20220;-34
2022/09/23 00:33:56;;;;;;;5.13;4.00;;;13.30;99.90;;;;;;5064835;28;20270;-34
2022/09/23 00:36:27;;;;;;;5.27;4.33;;;13.20;99.90;;;;;;5065493;28;20207;-35
2022/09/23 00:38:57;;;;;;;5.70;3.90;;;13.20;99.90;;;;;;5065257;28;20580;-34
2022/09/23 00:41:25;;;;;;;8.80;4.20;;;13.10;99.90;;;;;;5054032;28;20751;-34
2022/09/23 00:43:58;;;;;;;7.33;4.00;;;13.10;99.90;;;;;;5062429;28;20204;-34
2022/09/23 00:46:34;;;;;;;5.73;4.03;;;13.10;99.90;;;;;;5067602;28;20207;-34
2022/09/23 00:49:16;;;;;;;7.23;4.20;;;13.10;99.90;;;;;;5047133;28;20242;-34
2022/09/23 00:51:53;;;;;;;6.37;4.63;;;13.00;99.90;;;;;;5046910;28;20204;-34
2022/09/23 00:54:23;;;;;;;7.07;4.73;;;13.00;99.90;;;;;;5051542;28;20205;-34
2022/09/23 00:56:56;;;;;;;7.57;3.87;;;13.00;99.90;;;;;;5046855;28;20204;-34
2022/09/23 00:59:27;;;;;;;7.67;5.30;;;12.90;99.90;;;;;;5059859;28;20858;-34
2022/09/23 01:01:57;;;;;;;7.07;4.63;;;12.90;99.90;;;;;;5057449;28;20227;-34
2022/09/23 01:04:26;;;;;;;6.17;4.47;;;12.90;99.90;;;;;;5065691;28;20195;-34
2022/09/23 01:06:53;;;;;;;5.20;4.13;;;12.90;99.90;;;;;;5050303;28;20211;-34
2022/09/23 01:09:28;;;;;;;7.97;5.10;;;12.80;99.90;;;;;;5059976;28;20207;-34
2022/09/23 01:12:17;;;;;;;5.53;4.50;;;12.80;99.90;;;;;;5054684;28;20670;-34
2022/09/23 01:15:03;;;;;;;6.67;4.70;;;12.80;99.90;;;;;;5052591;28;20294;-34
2022/09/23 01:18:05;;;;;;;7.97;4.80;;;12.80;99.90;;;;;;5057435;28;20219;-34
2022/09/23 01:20:58;;;;;;;5.97;5.00;;;12.80;99.90;;;;;;5047394;28;20202;-34
2022/09/23 01:24:03;;;;;;;6.80;4.87;;;12.70;99.90;;;;;;5049955;28;20843;-34
2022/09/23 01:26:55;;;;;;;5.90;4.53;;;12.70;99.90;;;;;;5049814;28;20257;-34
2022/09/23 01:30:06;;;;;;;8.77;4.70;;;12.60;99.90;;;;;;5066304;28;20579;-34
2022/09/23 01:32:44;;;;;;;8.17;5.70;;;12.60;99.90;;;;;;5043775;28;20740;-35
2022/09/23 01:35:22;;;;;;;6.03;4.53;;;12.60;99.90;;;;;;5045723;28;20318;-34
2022/09/23 01:38:20;;;;;;;7.10;4.30;;;12.60;99.90;;;;;;5051594;28;20214;-34
2022/09/23 01:41:23;;;;;;;5.57;4.73;;;12.60;99.90;;;;;;5045613;28;20653;-34
2022/09/23 01:44:41;;;;;;;7.00;5.53;;;12.60;99.90;;;;;;5056578;28;20215;-34
2022/09/23 01:47:40;;;;;;;6.80;5.03;;;12.60;99.90;;;;;;5052837;28;20212;-34
2022/09/23 01:53:12;;;;;;;9.40;5.00;;;12.50;99.90;;;;;;5053425;28;20647;-34
2022/09/23 01:55:46;;;;;;;8.10;4.80;;;12.50;99.90;;;;;;5047139;28;20319;-34
2022/09/23 01:58:23;;;;;;;6.20;5.27;;;12.40;99.90;;;;;;5042335;28;20247;-34
2022/09/23 02:01:05;;;;;;;6.33;5.40;;;12.50;99.90;;;;;;5061355;28;20586;-34
2022/09/23 02:03:58;;;;;;;7.43;4.53;;;12.50;99.90;;;;;;5045931;28;20249;-34
2022/09/23 02:06:38;;;;;;;6.00;4.80;;;12.50;99.90;;;;;;5047980;28;20224;-34
2022/09/23 02:09:18;;;;;;;6.17;4.37;;;12.40;99.90;;;;;;5043811;28;20291;-34
2022/09/23 02:11:52;;;;;;;7.83;4.43;;;12.40;99.90;;;;;;5047654;28;20213;-34
2022/09/23 02:14:37;;;;;;;7.53;4.57;;;12.40;99.90;;;;;;5063666;28;20510;-34
2022/09/23 02:17:16;;;;;;;6.33;4.60;;;12.40;99.90;;;;;;5065209;28;20218;-34
2022/09/23 02:19:53;;;;;;;6.83;4.43;;;12.30;99.90;;;;;;5063667;28;20861;-34
2022/09/23 02:22:24;;;;;;;7.07;4.77;;;12.30;99.90;;;;;;5063035;28;20223;-34
2022/09/23 02:24:53;;;;;;;6.87;4.63;;;12.30;99.90;;;;;;5064897;28;20199;-34
2022/09/23 02:27:36;;;;;;;5.83;4.63;;;12.30;99.90;;;;;;5054056;28;20212;-34
2022/09/23 02:30:12;;;;;;;6.20;4.83;;;12.30;99.90;;;;;;5051588;28;20204;-34
2022/09/23 02:32:59;;;;;;;6.73;4.77;;;12.20;99.90;;;;;;5044693;28;20196;-34
2022/09/23 02:35:42;;;;;;;6.30;4.53;;;12.20;99.90;;;;;;5044481;28;20204;-34
2022/09/23 02:38:15;;;;;;;6.97;4.60;;;12.20;99.90;;;;;;5045426;28;20645;-34
2022/09/23 02:40:57;;;;;;;7.30;4.97;;;12.20;99.90;;;;;;5051547;28;20641;-34
2022/09/23 02:43:43;;;;;;;9.33;5.63;;;12.10;99.90;;;;;;5045193;28;20751;-34
2022/09/23 02:46:13;;;;;;;7.83;4.83;;;12.10;99.90;;;;;;5055247;28;20204;-34
2022/09/23 02:48:45;;;;;;;6.67;4.90;;;12.10;99.90;;;;;;5043376;28;20649;-34
2022/09/23 02:51:12;;;;;;;7.17;4.67;;;12.10;99.90;;;;;;5044278;28;20664;-34
2022/09/23 02:53:40;;;;;;;5.77;4.50;;;12.10;99.90;;;;;;5044717;28;20208;-34
2022/09/23 02:56:20;;;;;;;7.27;5.03;;;12.10;99.90;;;;;;5058579;28;20208;-34
2022/09/23 02:58:50;;;;;;;5.80;4.60;;;12.10;99.90;;;;;;5062096;28;20238;-34
2022/09/23 03:01:31;;;;;;;5.67;4.47;;;12.10;99.90;;;;;;5053458;28;20330;-34
2022/09/23 03:04:30;;;;;;;7.10;4.37;;;12.00;99.90;;;;;;5045086;28;20719;-34
2022/09/23 03:07:11;;;;;;;6.00;4.20;;;12.10;99.90;;;;;;5042725;28;20243;-34
2022/09/23 03:10:10;;;;;;;7.77;4.40;;;12.00;99.90;;;;;;5043403;28;20195;-34
2022/09/23 03:12:41;;;;;;;9.60;4.40;;;12.00;99.90;;;;;;5044834;28;20215;-34
2022/09/23 03:15:30;;;;;;;8.37;4.57;;;12.00;99.90;;;;;;5051995;28;20208;-34
2022/09/23 03:18:20;;;;;;;6.17;4.23;;;12.00;99.90;;;;;;5056081;28;20228;-34
2022/09/23 03:20:49;;;;;;;8.87;5.30;;;12.00;99.90;;;;;;5054942;28;20257;-34
2022/09/23 03:23:25;;;;;;;6.77;5.00;;;11.90;99.90;;;;;;5068252;28;20255;-34
2022/09/23 03:25:58;;;;;;;6.83;4.90;;;11.90;99.90;;;;;;5065078;28;20297;-34
2022/09/23 03:28:34;;;;;;;7.23;4.40;;;12.00;99.90;;;;;;5060029;28;20311;-34
2022/09/23 03:31:02;;;;;;;7.43;4.50;;;11.90;99.90;;;;;;5074894;28;20207;-35
2022/09/23 03:33:31;;;;;;;7.17;5.00;;;11.90;99.90;;;;;;5068199;28;20587;-34
2022/09/23 03:39:02;;;;;;;6.00;4.50;;;11.90;99.90;;;;;;5068231;28;20345;-34
2022/09/23 03:41:36;;;;;;;8.07;5.43;;;11.90;99.90;;;;;;5068358;28;20711;-34
2022/09/23 03:44:06;;;;;;;10.13;5.27;;;11.90;99.90;;;;;;5068025;28;20231;-35
2022/09/23 03:46:36;;;;;;;6.13;5.40;;;11.90;99.90;;;;;;5051628;28;20206;-35
2022/09/23 03:49:43;;;;;;;7.47;5.70;;;11.90;99.90;;;;;;5047748;28;20254;-34
2022/09/23 03:52:11;;;;;;;6.07;4.83;;;11.90;99.90;;;;;;5045846;28;20228;-36
2022/09/23 03:54:38;;;;;;;6.83;5.07;;;11.90;99.90;;;;;;5047547;28;20205;-35
2022/09/23 03:57:06;;;;;;;8.00;5.17;;;11.90;99.90;;;;;;5051608;28;20568;-34
2022/09/23 03:59:35;;;;;;;7.63;4.80;;;11.90;99.90;;;;;;5047404;28;20279;-34
2022/09/23 04:02:06;;;;;;;5.97;4.90;;;11.90;99.90;;;;;;5061938;28;20289;-34
2022/09/23 04:04:36;;;;;;;8.00;5.17;;;11.90;99.90;;;;;;5045865;28;21064;-34
2022/09/23 04:07:06;;;;;;;8.27;5.03;;;11.80;99.90;;;;;;5067715;28;20205;-34
2022/09/23 04:09:35;;;;;;;7.93;5.07;;;11.90;99.90;;;;;;5052568;28;20226;-34
2022/09/23 04:12:03;;;;;;;7.87;4.73;;;11.80;99.90;;;;;;5052941;28;20210;-34
2022/09/23 04:14:31;;;;;;;5.80;4.70;;;11.80;99.90;;;;;;5047148;28;20212;-34
2022/09/23 04:16:58;;;;;;;6.47;4.90;;;11.80;99.90;;;;;;5049064;28;20223;-34
2022/09/23 04:19:25;;;;;;;6.00;4.60;;;11.80;99.90;;;;;;5063818;28;20243;-34
2022/09/23 04:21:55;;;;;;;4.97;4.47;;;11.80;99.90;;;;;;5046481;28;20192;-34
2022/09/23 04:24:24;;;;;;;6.50;4.70;;;11.80;99.90;;;;;;5056679;28;20204;-34
2022/09/23 04:26:53;;;;;;;8.60;4.53;;;11.80;99.90;;;;;;5047534;28;20220;-34
2022/09/23 04:29:27;;;;;;;6.53;4.77;;;11.80;99.90;;;;;;5062635;28;20207;-34
2022/09/23 04:31:54;;;;;;;6.03;4.50;;;11.80;99.90;;;;;;5066604;28;20621;-34
2022/09/23 04:34:24;;;;;;;5.97;4.53;;;11.70;99.90;;;;;;5063328;28;20675;-35
2022/09/23 04:36:51;;;;;;;6.70;4.60;;;11.70;99.90;;;;;;5046615;28;20566;-34
2022/09/23 04:39:18;;;;;;;7.10;4.77;;;11.70;99.90;;;;;;5046809;28;20207;-33
2022/09/23 04:41:48;;;;;;;10.50;5.50;;;11.70;99.90;;;;;;5046922;28;20338;-34
2022/09/23 04:44:15;;;;;;;7.60;5.17;;;11.80;99.90;;;;;;5064252;28;20239;-34
2022/09/23 04:46:46;;;;;;;8.27;4.77;;;11.70;99.90;;;;;;5048122;28;20204;-35
2022/09/23 04:49:17;;;;;;;7.43;5.10;;;11.80;99.90;;;;;;5044945;28;20291;-35
2022/09/23 04:51:44;;;;;;;8.30;5.37;;;11.80;99.90;;;;;;5055497;28;20206;-34
2022/09/23 04:54:14;;;;;;;7.53;5.43;;;11.80;99.90;;;;;;5059814;28;20718;-34
2022/09/23 04:56:43;;;;;;;8.17;5.10;;;11.80;99.90;;;;;;5047095;28;20200;-34
2022/09/23 04:59:11;;;;;;;12.83;5.97;;;11.80;99.90;;;;;;5060110;28;20271;-34
2022/09/23 05:01:42;;;;;;;9.50;5.63;;;11.80;99.90;;;;;;5059065;28;20258;-34
2022/09/23 05:04:12;;;;;;;9.37;5.90;;;11.80;99.90;;;;;;5048931;28;20227;-35
2022/09/23 05:06:42;;;;;;;10.53;5.50;;;11.80;99.90;;;;;;5050601;28;20333;-34
2022/09/23 05:09:14;;;;;;;7.80;5.33;;;11.80;99.90;;;;;;5050192;28;20196;-34
2022/09/23 05:11:42;;;;;;;7.20;4.97;;;11.80;99.90;;;;;;5051491;28;20779;-35
2022/09/23 05:14:12;;;;;;;9.00;5.60;;;11.80;99.90;;;;;;5046708;28;20226;-34
2022/09/23 05:16:39;;;;;;;8.93;5.37;;;11.80;99.90;;;;;;5051994;28;20204;-34
2022/09/23 05:19:09;;;;;;;9.97;5.30;;;11.80;99.90;;;;;;5048938;28;20234;-34
2022/09/23 05:21:39;;;;;;;7.90;5.33;;;11.80;99.90;;;;;;5049678;28;20216;-34
2022/09/23 05:24:08;;;;;;;7.37;5.20;;;11.80;99.90;;;;;;5056188;28;20250;-34
2022/09/23 05:26:39;;;;;;;8.63;5.10;;;11.80;99.90;;;;;;5060474;28;20218;-34
2022/09/23 05:29:06;;;;;;;12.87;6.00;;;11.80;99.90;;;;;;5060374;28;20293;-34
2022/09/23 05:31:34;;;;;;;11.30;5.80;;;11.80;99.90;;;;;;5047984;28;20213;-34
2022/09/23 05:34:06;;;;;;;13.33;6.43;;;11.80;99.90;;;;;;5060361;28;20203;-34
2022/09/23 05:36:35;;;;;;;11.40;5.50;;;11.80;99.90;;;;;;5056299;28;20204;-34
2022/09/23 05:39:07;;;;;;;11.23;5.90;;;11.80;99.90;;;;;;5048076;28;20222;-34
2022/09/23 05:41:39;;;;;;;10.70;5.53;;;11.80;99.90;;;;;;5048279;28;20207;-34
2022/09/23 05:44:09;;;;;;;11.90;5.57;;;11.80;99.90;;;;;;5048738;28;20220;-35
2022/09/23 05:46:36;;;;;;;10.90;5.90;;;11.80;99.90;;;;;;5053899;28;20232;-34
2022/09/23 05:49:06;;;;;;;10.83;5.57;;;11.80;99.90;;;;;;5050629;28;20596;-34
2022/09/23 05:51:38;;;;;;;10.40;5.40;;;11.90;99.90;;;;;;5054381;28;20269;-34
2022/09/23 05:54:05;;;;;;;8.57;5.57;;;11.90;99.90;;;;;;5059283;28;20199;-34
2022/09/23 05:56:36;;;;;;;9.23;5.80;;;11.80;99.90;;;;;;5065542;28;20210;-34
2022/09/23 05:59:05;;;;;;;10.53;5.63;;;11.80;99.90;;;;;;5051483;28;20274;-34
2022/09/23 06:01:38;;;;;;;9.30;4.77;;;11.90;99.90;;;;;;5065456;28;20299;-34
2022/09/23 06:04:08;;;;;;;12.40;5.30;;;11.80;99.90;;;;;;5054756;28;20266;-34
2022/09/23 06:06:43;;;;;;;8.23;5.57;;;11.80;99.90;;;;;;5050484;28;20239;-34
2022/09/23 06:09:14;;;;;;;10.37;5.27;;;11.90;99.90;;;;;;5049779;28;20261;-34
2022/09/23 06:11:44;;;;;;;9.93;5.73;;;11.90;99.90;;;;;;5064668;28;20314;-35
2022/09/23 06:14:13;;;;;;;8.73;4.90;;;11.80;99.90;;;;;;5054486;28;20212;-34
2022/09/23 06:16:47;;;;;;;8.00;4.70;;;11.80;99.90;;;;;;5045186;28;20192;-34
2022/09/23 06:19:17;;;;;;;9.87;5.50;;;11.80;99.90;;;;;;5046338;28;20212;-34
2022/09/23 06:21:44;;;;;;;9.90;5.40;;;11.80;99.90;;;;;;5042794;28;20949;-34
2022/09/23 06:24:13;;;;;;;9.07;4.90;;;11.90;99.90;;;;;;5053030;28;20235;-34
2022/09/23 06:26:49;;;;;;;7.40;5.43;;;11.80;99.90;;;;;;5048435;28;20223;-34
2022/09/23 06:29:17;;;;;;;8.63;4.93;;;11.90;99.90;;;;;;5047296;28;20203;-34
2022/09/23 06:31:48;;;;;;;6.60;4.73;;;11.90;99.90;;;;;;5049511;28;20231;-34
2022/09/23 06:34:16;;;;;;;14.80;6.03;;;11.90;99.90;;;;;;5044101;28;20276;-34
2022/09/23 06:36:46;;;;;;;9.93;5.30;;;11.90;99.90;;;;;;5049602;28;20257;-34
2022/09/23 06:39:20;;;;;;;14.93;5.87;;;12.00;99.90;;;;;;5062146;28;20704;-35
2022/09/23 06:41:54;;;;;;;10.93;5.53;;;12.00;99.90;;;;;;5057268;28;20250;-34
2022/09/23 06:44:24;;;;;;;16.47;6.17;;;12.00;99.90;;;;;;5052481;28;20587;-35
2022/09/23 06:46:53;;;;;;;9.97;5.47;;;12.10;99.90;;;;;;5044646;28;20319;-34
2022/09/23 06:49:25;;;;;;;13.10;5.60;;;12.10;99.90;;;;;;5044622;28;20276;-35
2022/09/23 06:51:53;;;;;;;14.97;6.07;;;12.20;99.90;;;;;;5064516;28;20203;-34
2022/09/23 06:54:21;;;;;;;11.73;5.27;;;12.20;99.90;;;;;;5060608;28;20247;-33
2022/09/23 06:56:55;;;;;;;9.63;4.93;;;12.30;99.90;;;;;;5067224;28;20207;-34
2022/09/23 06:59:25;;;;;;;8.57;4.80;;;12.30;99.90;;;;;;5055182;28;20238;-34
2022/09/23 07:01:52;;;;;;;7.13;4.57;;;12.40;99.90;;;;;;5070222;28;20191;-34
2022/09/23 07:04:20;;;;;;;9.47;5.23;;;12.40;99.90;;;;;;5058085;28;20271;-34
2022/09/23 07:06:47;;;;;;;10.80;4.83;;;12.50;99.90;;;;;;5054254;28;20206;-34
2022/09/23 07:09:14;;;;;;;11.37;4.97;;;12.50;99.90;;;;;;5058031;28;20216;-34
2022/09/23 07:11:47;;;;;;;7.80;4.73;;;12.60;99.90;;;;;;5062448;28;20212;-34
2022/09/23 07:14:14;;;;;;;12.57;5.57;;;12.60;99.90;;;;;;5066944;28;20208;-34
2022/09/23 07:16:42;;;;;;;10.20;5.63;;;12.70;99.90;;;;;;5066241;28;20227;-34
2022/09/23 07:19:11;;;;;;;10.07;5.40;;;12.80;99.90;;;;;;5047712;28;20681;-34
2022/09/23 07:21:40;;;;;;;10.33;5.30;;;12.80;99.90;;;;;;5055809;28;20204;-34
2022/09/23 07:24:11;;;;;;;8.50;4.83;;;12.90;99.90;;;;;;5060411;28;20733;-34
2022/09/23 07:26:45;;;;;;;8.70;5.47;;;13.00;99.90;;;;;;5062651;28;20295;-35
2022/09/23 07:29:15;;;;;;;9.17;5.10;;;13.00;99.90;;;;;;5058454;28;20283;-35
2022/09/23 07:31:44;;;;;;;8.87;5.20;;;13.10;99.90;;;;;;5066490;28;20199;-34
2022/09/23 07:34:16;;;;;;;9.63;5.60;;;13.20;99.90;;;;;;5059289;28;20583;-35
2022/09/23 07:36:43;;;;;;;10.77;5.73;;;13.20;99.90;;;;;;5056654;28;20215;-34
2022/09/23 07:39:15;;;;;;;7.80;5.47;;;13.30;99.90;;;;;;5049436;28;20206;-37
2022/09/23 07:41:43;;;;;;;10.03;5.63;;;13.40;99.90;;;;;;5050938;28;20200;-37
2022/09/23 07:44:13;;;;;;;8.63;5.23;;;13.40;99.90;;;;;;5048091;28;20211;-37
2022/09/23 07:46:43;;;;;;;9.43;4.93;;;13.50;99.90;;;;;;5066058;28;20200;-37
2022/09/23 07:49:18;;;;;;;7.40;5.23;;;13.50;99.90;;;;;;5064444;28;20287;-37
2022/09/23 07:51:51;;;;;;;8.83;5.30;;;13.60;99.90;;;;;;5058209;28;20211;-37
2022/09/23 07:54:19;;;;;;;9.13;5.43;;;13.70;99.90;;;;;;5058743;28;20702;-37
2022/09/23 07:56:46;;;;;;;9.23;5.50;;;13.80;99.90;;;;;;5056418;28;20216;-38
2022/09/23 07:59:17;;;;;;;9.97;4.90;;;13.80;99.90;;;;;;5056566;28;20724;-37
2022/09/23 08:01:51;;;;;;;10.57;5.40;;;13.90;99.90;;;;;;5046332;28;20966;-37
2022/09/23 08:04:30;;;;;;;7.90;4.90;;;14.00;99.90;;;;;;5056786;28;20215;-37
2022/09/23 08:07:03;;;;;;;10.20;4.70;;;14.00;99.90;;;;;;5062588;28;20323;-37
2022/09/23 08:09:40;;;;;;;10.53;4.87;;;14.10;99.90;;;;;;5055917;28;20835;-37
2022/09/23 08:12:14;;;;;;;7.97;4.90;;;14.10;99.90;;;;;;5049570;28;20191;-36
2022/09/23 08:14:44;;;;;;;10.17;4.70;;;14.20;99.90;;;;;;5068598;28;20262;-37
2022/09/23 08:17:13;;;;;;;11.40;5.57;;;14.20;99.90;;;;;;5060158;28;20230;-37
2022/09/23 08:19:43;;;;;;;13.07;5.00;;;14.30;99.90;;;;;;5062393;28;20208;-38
2022/09/23 08:22:16;;;;;;;12.27;5.47;;;14.30;99.90;;;;;;5059061;28;20292;-35
2022/09/23 08:24:43;;;;;;;16.87;5.57;;;14.40;99.90;;;;;;5047010;28;20335;-38
2022/09/23 08:27:13;;;;;;;13.80;5.50;;;14.50;99.90;;;;;;5050907;28;20211;-38
2022/09/23 08:29:45;;;;;;;10.10;5.27;;;14.60;99.90;;;;;;5060712;28;20196;-37
2022/09/23 08:32:15;;;;;;;12.23;5.53;;;14.70;99.90;;;;;;5061737;28;20233;-35
2022/09/23 08:34:46;;;;;;;9.67;4.50;;;14.70;99.90;;;;;;5056086;28;20673;-36
2022/09/23 08:37:16;;;;;;;8.10;4.67;;;14.80;99.90;;;;;;5049261;28;20207;-36
2022/09/23 08:39:45;;;;;;;9.57;4.63;;;14.90;99.90;;;;;;5048387;28;20212;-36
2022/09/23 08:42:20;;;;;;;13.10;4.80;;;15.00;99.90;;;;;;5057702;28;20212;-36
2022/09/23 08:44:57;;;;;;;9.63;4.30;;;15.10;99.90;;;;;;5067632;28;20571;-36
2022/09/23 08:48:05;;;;;;;8.90;4.43;;;15.10;99.90;;;;;;5048459;28;20208;-36
2022/09/23 08:50:47;;;;;;;7.33;3.90;;;15.20;99.90;;;;;;5046090;28;20196;-35
2022/09/23 08:53:24;;;;;;;10.03;4.67;;;15.30;99.90;;;;;;5047641;28;20200;-38
2022/09/23 08:55:56;;;;;;;11.57;5.00;;;15.40;99.90;;;;;;5029674;28;20220;-38
2022/09/23 08:58:45;;;;;;;7.30;3.67;;;15.50;99.90;;;;;;5047161;28;20702;-37
2022/09/23 09:01:25;;;;;;;11.43;4.47;;;15.60;99.90;;;;;;5054039;28;20204;-37
2022/09/23 09:04:10;;;;;;;10.77;4.60;;;15.60;99.90;;;;;;5066886;28;20250;-37
2022/09/23 09:06:59;;;;;;;10.03;4.60;;;15.70;99.90;;;;;;5060920;28;20229;-37
2022/09/23 09:10:02;;;;;;;7.17;4.27;;;15.80;99.90;;;;;;5045203;28;20227;-37
2022/09/23 09:13:06;;;;;;;6.50;3.87;;;15.90;99.90;;;;;;5057364;28;20215;-37
2022/09/23 09:15:52;;;;;;;14.53;4.53;;;16.00;99.90;;;;;;5048085;28;20203;-36
2022/09/23 09:18:23;;;;;;;6.47;3.93;;;16.00;99.90;;;;;;5056866;28;20195;-36
2022/09/23 09:21:08;;;;;;;10.53;4.50;;;16.10;99.90;;;;;;5057795;28;20784;-36
2022/09/23 09:23:55;;;;;;;9.47;4.10;;;16.30;99.90;;;;;;5052037;28;20417;-36
2022/09/23 09:26:32;;;;;;;7.00;4.40;;;16.30;99.90;;;;;;5064664;28;20203;-36
2022/09/23 09:29:04;;;;;;;14.73;4.80;;;16.40;99.90;;;;;;5059052;28;20195;-36
2022/09/23 09:31:51;;;;;;;11.67;5.17;;;16.50;99.90;;;;;;5056725;28;20218;-38
2022/09/23 09:34:27;;;;;;;8.73;4.40;;;16.60;99.90;;;;;;5055080;28;20203;-36
2022/09/23 09:37:04;;;;;;;10.73;5.07;;;16.70;99.90;;;;;;5046218;28;20635;-36
2022/09/23 09:39:38;;;;;;;10.77;4.83;;;16.80;99.90;;;;;;5056695;28;20276;-36
2022/09/23 09:42:06;;;;;;;12.23;5.03;;;16.90;99.90;;;;;;5064077;28;20892;-35
2022/09/23 09:44:57;;;;;;;10.73;5.30;;;17.00;99.90;;;;;;5052430;28;20220;-36
2022/09/23 09:48:02;;;;;;;11.33;4.70;;;17.00;99.90;;;;;;5046474;28;20659;-36
2022/09/23 09:50:48;;;;;;;9.93;4.87;;;17.20;99.90;;;;;;5045658;28;20314;-36
2022/09/23 09:53:21;;;;;;;6.97;4.13;;;17.30;99.90;;;;;;5048948;28;20255;-36
2022/09/23 09:56:04;;;;;;;9.20;4.10;;;17.30;99.90;;;;;;5057460;28;20211;-36
2022/09/23 09:58:39;;;;;;;8.03;4.37;;;17.40;99.90;;;;;;5043450;28;20244;-35
2022/09/23 10:01:22;;;;;;;10.03;4.90;;;17.50;99.90;;;;;;5066049;28;20199;-35
2022/09/23 10:03:53;;;;;;;12.13;5.57;;;17.60;99.90;;;;;;5047856;28;20239;-35
2022/09/23 10:06:28;;;;;;;9.17;4.33;;;17.70;99.90;;;;;;5043318;28;20201;-36
2022/09/23 10:09:07;;;;;;;8.73;4.33;;;17.80;99.90;;;;;;5046630;28;20200;-35
2022/09/23 10:11:38;;;;;;;8.40;4.17;;;17.80;99.90;;;;;;5045322;28;20207;-35
2022/09/23 10:14:19;;;;;;;14.83;5.77;;;17.90;99.90;;;;;;5040245;28;20220;-36
2022/09/23 10:17:00;;;;;;;13.20;5.60;;;18.00;99.90;;;;;;5039735;28;20238;-36
2022/09/23 10:19:28;;;;;;;9.03;5.13;;;18.00;99.90;;;;;;5041359;28;20278;-36
2022/09/23 10:22:04;;;;;;;10.43;5.23;;;18.10;99.90;;;;;;5045108;28;20200;-36
2022/09/23 10:24:37;;;;;;;9.90;4.87;;;18.20;99.90;;;;;;5050189;28;20238;-36
2022/09/23 10:27:10;;;;;;;9.73;4.80;;;18.30;99.90;;;;;;5049256;28;20200;-36
2022/09/23 10:29:47;;;;;;;10.07;5.13;;;18.30;99.90;;;;;;5054209;28;20286;-36
2022/09/23 10:32:45;;;;;;;8.60;5.03;;;18.40;99.90;;;;;;5045654;28;20710;-36
2022/09/23 10:35:20;;;;;;;8.33;4.83;;;18.50;99.90;;;;;;5053361;28;20230;-36
2022/09/23 10:37:58;;;;;;;11.67;4.60;;;18.60;99.90;;;;;;5053520;28;20211;-35
2022/09/23 10:47:05;;;;;;;9.63;4.30;;;18.70;99.90;;;;;;5049641;28;20744;-34
2022/09/23 10:49:57;;;;;;;7.93;4.00;;;18.80;99.90;;;;;;5051201;28;20196;-35
2022/09/23 10:52:34;;;;;;;9.93;4.30;;;18.90;99.90;;;;;;5044593;28;20208;-35
2022/09/23 10:55:30;;;;;;;6.87;3.60;;;18.90;99.90;;;;;;5049111;28;20286;-35
2022/09/23 10:58:13;;;;;;;10.00;4.30;;;19.00;99.90;;;;;;5055896;28;20311;-35
2022/09/23 11:01:01;;;;;;;10.03;3.90;;;19.10;99.90;;;;;;5052782;28;20568;-35
2022/09/23 11:03:44;;;;;;;8.13;3.43;;;19.20;99.90;;;;;;5052290;28;20591;-34
2022/09/23 11:06:33;;;;;;;11.05;3.80;;;19.30;99.90;;;;;;5056494;28;20584;-34
2022/09/23 11:09:11;;;;;;;9.57;4.03;;;19.50;99.90;;;;;;5047405;28;20259;-34
2022/09/23 11:11:45;;;;;;;6.07;3.63;;;19.60;99.90;;;;;;5061412;28;20290;-34
2022/09/23 11:14:45;;;;;;;9.43;3.40;;;19.60;99.90;;;;;;5044295;28;20247;-34
2022/09/23 11:17:24;;;;;;;5.60;3.03;;;19.70;99.90;;;;;;5045132;28;20204;-34
2022/09/23 11:20:21;;;;;;;6.17;2.90;;;19.80;99.90;;;;;;5046911;28;20327;-34
2022/09/23 11:22:52;;;;;;;6.38;2.83;;;19.90;99.90;;;;;;5064084;28;20626;-35
2022/09/23 11:25:21;;;;;;;5.53;2.77;;;19.90;99.90;;;;;;5065610;28;20227;-35
2022/09/23 11:28:11;;;;;;;5.88;3.20;;;20.00;99.90;;;;;;5064841;28;20207;-35
2022/09/23 11:31:11;;;;;;;7.70;3.10;;;20.00;99.90;;;;;;5059461;28;20307;-35
2022/09/23 11:33:48;;;;;;;9.02;3.30;;;20.10;99.90;;;;;;5045224;28;20300;-35
2022/09/23 11:36:22;;;;;;;5.20;3.10;;;20.10;99.90;;;;;;5046600;28;20207;-36
2022/09/23 11:39:00;;;;;;;6.60;2.73;;;20.20;99.90;;;;;;5065894;28;20697;-35
2022/09/23 11:41:31;;;;;;;6.00;2.80;;;20.30;99.90;;;;;;5065165;28;20195;-36
2022/09/23 11:44:06;;;;;;;4.45;2.60;;;20.30;99.90;;;;;;5068911;28;20770;-36
2022/09/23 11:46:49;;;;;;;5.55;2.80;;;20.40;99.90;;;;;;5065951;28;20261;-34
2022/09/23 11:49:34;;;;;;;6.00;3.00;;;20.40;99.90;;;;;;5048923;28;20208;-37
2022/09/23 11:52:11;;;;;;;3.83;2.78;;;20.50;99.90;;;;;;5048424;28;20295;-36
2022/09/23 11:54:38;;;;;;;4.22;2.80;;;20.50;99.90;;;;;;5048982;28;20577;-40
2022/09/23 11:57:12;;;;;;;5.82;2.85;;;20.50;99.90;;;;;;5048514;28;20219;-36
2022/09/23 11:59:50;;;;;;;5.18;2.90;;;20.50;99.90;;;;;;5045176;28;20236;-36
2022/09/23 12:02:32;;;;;;;11.52;3.92;;;20.60;99.90;;;;;;5058239;28;20199;-36
2022/09/23 12:05:13;;;;;;;5.75;3.28;;;20.60;99.90;;;;;;5055869;28;20310;-36
2022/09/23 12:07:52;;;;;;;9.40;3.13;;;20.70;99.90;;;;;;5062401;28;20233;-35
2022/09/23 12:10:21;;;;;;;6.50;3.13;;;20.80;99.90;;;;;;5048585;28;20196;-36
2022/09/23 12:13:19;;;;;;;6.55;3.03;;;20.80;99.90;;;;;;5048325;28;20716;-34
2022/09/23 12:16:20;;;;;;;5.30;2.92;;;20.80;99.90;;;;;;5055507;28;20532;-35
2022/09/23 12:19:17;;;;;;;6.68;3.40;;;20.90;99.90;;;;;;5067724;28;20318;-34
2022/09/23 12:21:50;;;;;;;5.90;3.00;;;20.90;99.90;;;;;;5053973;28;20242;-35
2022/09/23 12:24:33;;;;;;;7.43;3.45;;;21.00;99.90;;;;;;5064323;28;20315;-38
2022/09/23 12:27:05;;;;;;;8.30;3.33;;;21.00;99.90;;;;;;5048019;28;20238;-36
2022/09/23 12:29:41;;;;;;;5.07;3.65;;;21.10;99.90;;;;;;5048103;28;20203;-36
2022/09/23 12:32:17;;;;;;;7.38;3.30;;;21.10;99.90;;;;;;5047871;28;20306;-36
2022/09/23 12:34:50;;;;;;;6.47;3.13;;;21.20;99.90;;;;;;5077016;28;20199;-36
2022/09/23 12:37:33;;;;;;;6.05;3.58;;;21.20;99.90;;;;;;5050100;28;20203;-36
2022/09/23 12:40:08;;;;;;;4.25;2.80;;;21.30;99.90;;;;;;5045975;28;20204;-36
2022/09/23 12:42:42;;;;;;;4.72;2.90;;;21.30;99.90;;;;;;5047836;28;20226;-36
2022/09/23 12:45:31;;;;;;;4.82;3.20;;;21.40;99.90;;;;;;5049136;28;20223;-37
2022/09/23 12:48:21;;;;;;;5.57;3.50;;;21.40;99.90;;;;;;5046439;28;20201;-36
2022/09/23 12:50:54;;;;;;;5.57;3.25;;;21.50;99.90;;;;;;5045879;28;20599;-35
2022/09/23 12:53:32;;;;;;;5.82;3.30;;;21.50;99.90;;;;;;5064376;28;20695;-36
2022/09/23 12:56:13;;;;;;;8.05;3.60;;;21.50;99.90;;;;;;5051053;28;20215;-36
2022/09/23 12:58:43;;;;;;;7.13;3.28;;;21.50;99.90;;;;;;5046660;28;20297;-37
2022/09/23 13:01:13;;;;;;;5.85;3.42;;;21.50;99.90;;;;;;5052674;28;20262;-36
2022/09/23 13:07:14;;;;;;;5.38;3.80;;;21.40;99.90;;;;;;5047413;28;20575;-36
2022/09/23 13:09:48;;;;;;;6.10;3.15;;;21.40;99.90;;;;;;5044713;28;20200;-37
2022/09/23 13:12:29;;;;;;;5.07;3.20;;;21.40;99.90;;;;;;5051174;28;20227;-36
2022/09/23 13:15:04;;;;;;;7.57;3.50;;;21.40;99.90;;;;;;5058390;28;20242;-37
2022/09/23 13:17:35;;;;;;;6.57;3.70;;;21.30;99.90;;;;;;5048838;28;20246;-35
2022/09/23 13:20:06;;;;;;;6.15;3.65;;;21.40;99.90;;;;;;5051727;28;20196;-37
2022/09/23 13:23:01;;;;;;;4.97;3.22;;;21.40;99.90;;;;;;5067188;28;20581;-36
2022/09/23 13:25:32;;;;;;;5.82;3.45;;;21.40;99.90;;;;;;5051130;28;20281;-37
2022/09/23 13:28:11;;;;;;;6.72;3.65;;;21.40;99.90;;;;;;5047353;28;20232;-38
2022/09/23 13:30:50;;;;;;;4.32;3.05;;;21.40;99.90;;;;;;5048570;28;20246;-37
2022/09/23 13:33:53;;;;;;;6.25;3.72;;;21.50;99.90;;;;;;5049140;28;20204;-37
2022/09/23 13:36:23;;;;;;;5.97;3.40;;;21.50;99.90;;;;;;5049335;28;20188;-37
2022/09/23 13:38:50;;;;;;;6.45;3.50;;;21.50;99.90;;;;;;5049053;28;20651;-35
2022/09/23 13:41:21;;;;;;;6.47;3.10;;;21.50;99.90;;;;;;5054249;28;20195;-36
2022/09/23 13:43:59;;;;;;;11.27;3.53;;;21.50;99.90;;;;;;5068595;28;20218;-35
2022/09/23 13:46:39;;;;;;;4.38;3.05;;;21.50;99.90;;;;;;5065186;28;20230;-37